createdAt,value
2023-05-12T00:00:50.037Z,94.9
2023-05-12T00:02:49.762Z,95.0
2023-05-12T00:04:49.481Z,95.0
2023-05-12T00:06:50.101Z,94.9
2023-05-12T00:08:49.783Z,95.0
2023-05-12T00:10:49.353Z,95.0
2023-05-12T00:12:49.901Z,95.0
2023-05-12T00:14:49.519Z,95.0
2023-05-12T00:16:50.215Z,95.2
2023-05-12T00:18:50.000Z,95.2
2023-05-12T00:20:49.620Z,95.0
2023-05-12T00:22:50.167Z,95.2
2023-05-12T00:24:49.846Z,95.2
2023-05-12T00:26:49.489Z,95.0
2023-05-12T00:28:50.166Z,94.9
2023-05-12T00:30:49.891Z,94.9
2023-05-12T00:32:49.680Z,95.0
2023-05-12T00:34:50.309Z,95.0
2023-05-12T00:36:49.933Z,94.9
2023-05-12T00:38:49.517Z,94.8
2023-05-12T00:40:50.174Z,94.9
2023-05-12T00:42:49.756Z,95.0
2023-05-12T00:44:49.367Z,95.3
2023-05-12T00:46:49.964Z,95.0
2023-05-12T00:48:49.562Z,94.7
2023-05-12T00:50:50.122Z,94.9
2023-05-12T00:52:49.718Z,94.8
2023-05-12T00:54:49.406Z,94.8
2023-05-12T00:56:50.000Z,94.8
2023-05-12T00:58:49.595Z,94.8
2023-05-12T01:00:50.218Z,94.9
2023-05-12T01:02:50.052Z,94.9
2023-05-12T01:04:49.677Z,94.9
2023-05-12T01:06:50.216Z,95.2
2023-05-12T01:08:49.830Z,95.1
2023-05-12T01:10:49.435Z,95.1
2023-05-12T01:12:50.049Z,95.0
2023-05-12T01:14:49.596Z,95.3
2023-05-12T01:16:50.160Z,95.5
2023-05-12T01:18:49.829Z,95.6
2023-05-12T01:20:49.466Z,95.5
2023-05-12T01:22:50.033Z,95.4
2023-05-12T01:24:49.596Z,95.3
2023-05-12T01:26:50.253Z,96.0
2023-05-12T01:28:49.912Z,95.9
2023-05-12T01:30:49.523Z,95.5
2023-05-12T01:32:50.173Z,95.6
2023-05-12T01:34:49.983Z,95.6
2023-05-12T01:36:49.508Z,95.6
2023-05-12T01:38:50.127Z,95.6
2023-05-12T01:40:49.788Z,95.4
2023-05-12T01:42:49.378Z,95.6
2023-05-12T01:44:49.993Z,95.4
2023-05-12T01:46:49.729Z,95.3
2023-05-12T01:48:49.462Z,95.5
2023-05-12T01:50:50.030Z,95.1
2023-05-12T01:52:49.570Z,95.4
2023-05-12T01:54:50.158Z,95.6
2023-05-12T01:56:49.768Z,95.7
2023-05-12T01:58:49.437Z,95.8
2023-05-12T02:00:49.990Z,96.0
2023-05-12T02:02:49.697Z,96.0
2023-05-12T02:04:49.375Z,95.9
2023-05-12T02:06:49.998Z,95.8
2023-05-12T02:08:49.560Z,96.0
2023-05-12T02:10:50.110Z,95.9
2023-05-12T02:12:49.737Z,95.9
2023-05-12T02:14:49.353Z,96.2
2023-05-12T02:16:49.955Z,96.1
2023-05-12T02:18:49.628Z,96.0
2023-05-12T02:20:50.213Z,95.9
2023-05-12T02:22:49.714Z,95.9
2023-05-12T02:24:50.227Z,96.1
2023-05-12T02:26:49.876Z,96.2
2023-05-12T02:28:49.462Z,96.3
2023-05-12T02:30:50.097Z,96.0
2023-05-12T02:32:49.696Z,95.9
2023-05-12T02:34:49.368Z,95.9
2023-05-12T02:36:50.005Z,95.9
2023-05-12T02:38:49.573Z,95.8
2023-05-12T02:40:50.213Z,95.7
2023-05-12T02:42:49.916Z,95.8
2023-05-12T02:44:49.579Z,95.8
2023-05-12T02:46:50.283Z,95.7
2023-05-12T02:48:49.877Z,95.7
2023-05-12T02:50:49.410Z,96.3
2023-05-12T02:52:50.034Z,96.1
2023-05-12T02:54:49.605Z,96.2
2023-05-12T02:56:50.187Z,96.1
2023-05-12T02:58:49.800Z,96.0
2023-05-12T03:00:54.293Z,95.9
2023-05-12T03:02:50.018Z,95.9
2023-05-12T03:04:49.764Z,96.0
2023-05-12T03:06:49.361Z,95.9
2023-05-12T03:08:49.908Z,95.9
2023-05-12T03:10:49.502Z,96.1
2023-05-12T03:12:50.079Z,96.0
2023-05-12T03:14:49.677Z,95.9
2023-05-12T03:16:50.369Z,95.8
2023-05-12T03:18:50.076Z,95.4
2023-05-12T03:20:49.745Z,95.4
2023-05-12T03:22:50.322Z,95.4
2023-05-12T03:24:49.879Z,95.3
2023-05-12T03:26:49.580Z,95.5
2023-05-12T03:28:50.174Z,95.4
2023-05-12T03:30:49.828Z,95.7
2023-05-12T03:32:49.417Z,95.5
2023-05-12T03:34:50.058Z,95.5
2023-05-12T03:36:49.615Z,95.5
2023-05-12T03:38:50.213Z,95.1
2023-05-12T03:40:49.771Z,95.1
2023-05-12T03:42:49.360Z,95.2
2023-05-12T03:44:49.933Z,95.1
2023-05-12T03:46:49.686Z,94.9
2023-05-12T03:48:50.270Z,94.9
2023-05-12T03:50:49.798Z,95.2
2023-05-12T03:52:49.425Z,94.7
2023-05-12T03:54:50.033Z,94.9
2023-05-12T03:56:49.618Z,94.8
2023-05-12T03:58:50.223Z,94.6
2023-05-12T04:00:49.868Z,94.7
2023-05-12T04:02:49.481Z,94.6
2023-05-12T04:04:50.167Z,94.4
2023-05-12T04:06:49.736Z,94.2
2023-05-12T04:08:50.295Z,94.0
2023-05-12T04:10:49.903Z,94.0
2023-05-12T04:12:49.947Z,94.1
2023-05-12T04:14:49.904Z,93.9
2023-05-12T04:16:49.792Z,93.8
2023-05-12T04:18:49.655Z,93.5
2023-05-12T04:20:50.341Z,94.0
2023-05-12T04:22:49.941Z,93.4
2023-05-12T04:24:49.620Z,93.4
2023-05-12T04:26:50.201Z,93.0
2023-05-12T04:28:49.808Z,93.0
2023-05-12T04:30:49.536Z,92.6
2023-05-12T04:32:50.199Z,92.8
2023-05-12T04:34:49.948Z,92.8
2023-05-12T04:36:49.560Z,92.5
2023-05-12T04:38:50.112Z,92.3
2023-05-12T04:40:49.735Z,91.9
2023-05-12T04:42:50.340Z,91.6
2023-05-12T04:44:49.879Z,92.4
2023-05-12T04:46:49.478Z,91.9
2023-05-12T04:48:50.113Z,92.3
2023-05-12T04:50:49.749Z,91.8
2023-05-12T04:52:49.420Z,91.4
2023-05-12T04:54:49.981Z,91.4
2023-05-12T04:56:49.560Z,91.3
2023-05-12T04:58:50.231Z,91.6
2023-05-12T05:00:49.851Z,91.4
2023-05-12T05:02:49.613Z,91.4
2023-05-12T05:04:50.319Z,82
2023-05-12T05:06:49.996Z,91.5
2023-05-12T05:08:49.601Z,91.5
2023-05-12T05:10:50.164Z,92.0
2023-05-12T05:12:49.715Z,92.0
2023-05-12T05:14:50.270Z,92.2
2023-05-12T05:16:49.850Z,92.2
2023-05-12T05:18:49.440Z,92.3
2023-05-12T05:22:50.202Z,91.8
2023-05-12T05:24:49.810Z,91.9
2023-05-12T05:26:49.398Z,91.4
2023-05-12T05:28:49.972Z,91.8
2023-05-12T05:30:49.484Z,82
2023-05-12T05:32:50.000Z,82
2023-05-12T05:34:49.641Z,91.3
2023-05-12T05:36:50.296Z,82
2023-05-12T05:38:49.872Z,90.2
2023-05-12T05:40:53.706Z,82
2023-05-12T05:42:49.939Z,81
2023-05-12T05:44:49.505Z,81
2023-05-12T05:46:50.185Z,81
2023-05-12T05:48:49.892Z,81
2023-05-12T05:50:49.451Z,81
2023-05-12T05:52:50.026Z,81
2023-05-12T05:54:49.566Z,81
2023-05-12T05:56:50.237Z,81
2023-05-12T05:58:49.875Z,81
2023-05-12T06:00:49.522Z,81
2023-05-12T06:02:50.252Z,80
2023-05-12T06:04:49.964Z,80
2023-05-12T06:06:49.582Z,80
2023-05-12T06:08:50.212Z,80
2023-05-12T06:10:49.770Z,80
2023-05-12T06:12:49.357Z,80
2023-05-12T06:14:49.935Z,80
2023-05-12T06:16:49.559Z,80
2023-05-12T06:18:50.279Z,80
2023-05-12T06:20:49.910Z,80
2023-05-12T06:22:49.510Z,80
2023-05-12T06:24:50.134Z,80
2023-05-12T06:26:49.718Z,80
2023-05-12T06:28:50.281Z,80
2023-05-12T06:30:49.900Z,80
2023-05-12T06:32:49.511Z,80
2023-05-12T06:34:50.207Z,80
2023-05-12T06:36:49.732Z,80
2023-05-12T06:38:50.340Z,80
2023-05-12T06:40:49.942Z,80
2023-05-12T06:42:49.549Z,80
2023-05-12T06:44:50.057Z,80
2023-05-12T06:46:49.625Z,80
2023-05-12T06:48:50.252Z,80
2023-05-12T06:50:49.845Z,80
2023-05-12T06:52:49.391Z,80
2023-05-12T06:54:49.961Z,80
2023-05-12T06:56:49.590Z,80
2023-05-12T06:58:50.180Z,80
2023-05-12T07:00:49.750Z,80
2023-05-12T07:02:50.280Z,80
2023-05-12T07:04:49.938Z,80
2023-05-12T07:06:49.605Z,80
2023-05-12T07:08:50.195Z,80
2023-05-12T07:10:49.803Z,79
2023-05-12T07:12:49.392Z,80
2023-05-12T07:14:49.972Z,80
2023-05-12T07:16:49.555Z,80
2023-05-12T07:18:50.205Z,80
2023-05-12T07:20:49.780Z,79
2023-05-12T07:22:49.375Z,79
2023-05-12T07:24:49.964Z,79
2023-05-12T07:26:49.545Z,79
2023-05-12T07:28:50.128Z,79
2023-05-12T07:30:49.686Z,79
2023-05-12T07:32:50.317Z,79
2023-05-12T07:34:50.004Z,79
2023-05-12T07:36:49.624Z,79
2023-05-12T07:38:50.198Z,79
2023-05-12T07:40:49.778Z,79
2023-05-12T07:42:49.472Z,79
2023-05-12T07:44:50.096Z,79
2023-05-12T07:46:49.743Z,79
2023-05-12T07:48:50.311Z,79
2023-05-12T07:50:49.923Z,78
2023-05-12T07:52:49.468Z,78
2023-05-12T07:54:50.095Z,78
2023-05-12T07:56:49.725Z,78
2023-05-12T07:58:50.301Z,78
2023-05-12T08:00:49.844Z,78
2023-05-12T08:02:49.609Z,78
2023-05-12T08:04:49.513Z,77
2023-05-12T08:06:50.142Z,78
2023-05-12T08:08:49.710Z,78
2023-05-12T08:10:50.301Z,78
2023-05-12T08:12:49.936Z,78
2023-05-12T08:14:49.458Z,77
2023-05-12T08:16:50.091Z,77
2023-05-12T08:18:49.848Z,77
2023-05-12T08:20:49.448Z,77
2023-05-12T08:22:50.026Z,77
2023-05-12T08:24:49.568Z,77
2023-05-12T08:26:50.133Z,77
2023-05-12T08:28:49.734Z,77
2023-05-12T08:30:50.342Z,77
2023-05-12T08:32:49.930Z,78
2023-05-12T08:34:49.630Z,77
2023-05-12T08:36:50.224Z,77
2023-05-12T08:38:49.838Z,78
2023-05-12T08:40:49.482Z,78
2023-05-12T08:42:50.106Z,78
2023-05-12T08:44:49.692Z,78
2023-05-12T08:46:50.310Z,78
2023-05-12T08:48:49.913Z,78
2023-05-12T08:50:49.508Z,78
2023-05-12T08:52:49.517Z,78
2023-05-12T08:54:56.025Z,77
2023-05-12T08:58:49.704Z,76
2023-05-12T09:00:50.281Z,76
2023-05-12T09:02:54.364Z,76
2023-05-12T09:04:49.663Z,76
2023-05-12T09:06:50.351Z,76
2023-05-12T09:08:49.931Z,76
2023-05-12T09:10:49.537Z,76
2023-05-12T09:12:50.173Z,75
2023-05-12T09:14:49.822Z,76
2023-05-12T09:16:49.560Z,76
2023-05-12T09:18:49.442Z,76
2023-05-12T09:20:50.228Z,76
2023-05-12T09:22:49.776Z,75
2023-05-12T09:24:49.361Z,75
2023-05-12T09:26:50.030Z,74
2023-05-12T09:28:49.596Z,74
2023-05-12T09:30:50.194Z,75
2023-05-12T09:32:49.773Z,75
2023-05-12T09:34:49.388Z,74
2023-05-12T09:36:49.920Z,74
2023-05-12T09:38:49.484Z,74
2023-05-12T09:40:50.073Z,74
2023-05-12T09:42:49.665Z,74
2023-05-12T09:44:50.197Z,74
2023-05-12T09:46:49.757Z,74
2023-05-12T09:48:49.336Z,73
2023-05-12T09:50:49.885Z,74
2023-05-12T09:52:49.617Z,74
2023-05-12T09:54:50.242Z,73
2023-05-12T09:56:50.005Z,73
2023-05-12T09:58:50.274Z,73
2023-05-12T10:01:06.637Z,71
2023-05-12T10:02:50.406Z,71
2023-05-12T10:04:50.174Z,71
2023-05-12T10:06:49.755Z,71
2023-05-12T10:08:50.299Z,71
2023-05-12T10:10:49.868Z,70
2023-05-12T10:12:49.417Z,69
2023-05-12T10:14:49.957Z,69
2023-05-12T10:16:49.671Z,69
2023-05-12T10:18:50.440Z,69
2023-05-12T10:20:50.056Z,68
2023-05-12T10:22:49.565Z,69
2023-05-12T10:24:50.096Z,69
2023-05-12T10:26:49.675Z,68
2023-05-12T10:28:50.233Z,68
2023-05-12T10:30:49.787Z,67
2023-05-12T10:32:50.355Z,67
2023-05-12T10:34:50.020Z,66
2023-05-12T10:36:49.643Z,70.6
2023-05-12T10:38:50.242Z,70.7
2023-05-12T10:40:49.746Z,72.5
2023-05-12T10:42:50.336Z,72.8
2023-05-12T10:44:49.962Z,73.8
2023-05-12T10:46:49.897Z,74.3
2023-05-12T10:48:49.517Z,73.9
2023-05-12T10:50:50.074Z,72.9
2023-05-12T10:52:49.648Z,73.5
2023-05-12T10:54:50.148Z,72.0
2023-05-12T10:56:49.999Z,73.2
2023-05-12T10:58:50.394Z,74.7
2023-05-12T11:00:50.787Z,73.2
2023-05-12T11:02:50.120Z,73.2
2023-05-12T11:04:50.387Z,72.4
2023-05-12T11:06:50.271Z,74.0
2023-05-12T11:08:50.759Z,74.6
2023-05-12T11:10:49.492Z,75.9
2023-05-12T11:12:50.045Z,75.1
2023-05-12T11:14:49.613Z,70
2023-05-12T11:16:50.264Z,70
2023-05-12T11:18:49.842Z,70
2023-05-12T11:20:49.382Z,71
2023-05-12T11:22:49.943Z,70
2023-05-12T11:24:49.526Z,70
2023-05-12T11:26:50.152Z,70
2023-05-12T11:28:49.832Z,70
2023-05-12T11:30:49.370Z,70
2023-05-12T11:32:49.988Z,71
2023-05-12T11:34:49.656Z,71
2023-05-12T11:36:50.221Z,71
2023-05-12T11:38:49.813Z,71
2023-05-12T11:40:49.417Z,71
2023-05-12T11:42:50.060Z,70
2023-05-12T11:44:49.673Z,70
2023-05-12T11:46:50.247Z,69
2023-05-12T11:48:49.821Z,69
2023-05-12T11:50:49.405Z,69
2023-05-12T11:52:50.100Z,69
2023-05-12T11:54:49.686Z,68
2023-05-12T11:56:50.247Z,68
2023-05-12T11:58:49.799Z,68
2023-05-12T12:00:49.349Z,68
2023-05-12T12:02:50.039Z,67
2023-05-12T12:04:49.833Z,66
2023-05-12T12:06:49.388Z,70.9
2023-05-12T12:08:49.987Z,68
2023-05-12T12:10:49.551Z,68
2023-05-12T12:12:50.202Z,68
2023-05-12T12:14:49.848Z,68
2023-05-12T12:16:49.418Z,68
2023-05-12T12:18:50.099Z,69
2023-05-12T12:20:49.742Z,69
2023-05-12T12:22:50.284Z,69
2023-05-12T12:24:49.882Z,69
2023-05-12T12:26:49.424Z,67
2023-05-12T12:28:49.980Z,67
2023-05-12T12:30:49.473Z,67
2023-05-12T12:32:50.083Z,66
2023-05-12T12:34:49.759Z,67
2023-05-12T12:36:49.372Z,67
2023-05-12T12:38:49.987Z,66
2023-05-12T12:40:49.569Z,66
2023-05-12T12:42:50.214Z,66
2023-05-12T12:44:49.843Z,65
2023-05-12T12:46:49.510Z,65
2023-05-12T12:48:50.246Z,65
2023-05-12T12:50:49.789Z,66
2023-05-12T12:52:49.412Z,66
2023-05-12T12:54:50.021Z,69.4
2023-05-12T12:56:49.719Z,67.6
2023-05-12T12:58:49.345Z,69.7
2023-05-12T13:00:49.947Z,69.3
2023-05-12T13:02:49.824Z,69.6
2023-05-12T13:04:49.525Z,69.5
2023-05-12T13:06:50.180Z,69.5
2023-05-12T13:08:49.819Z,67
2023-05-12T13:10:49.399Z,72.7
2023-05-12T13:12:49.964Z,70.0
2023-05-12T13:14:49.530Z,71.3
2023-05-12T13:16:50.213Z,71.0
2023-05-12T13:18:49.842Z,71.6
2023-05-12T13:20:49.427Z,72.0
2023-05-12T13:22:49.947Z,69.0
2023-05-12T13:24:49.573Z,71.0
2023-05-12T13:26:50.194Z,70.7
2023-05-12T13:28:49.839Z,70.1
2023-05-12T13:30:49.420Z,69.8
2023-05-12T13:32:50.239Z,69.4
2023-05-12T13:34:49.900Z,69.1
2023-05-12T13:36:49.437Z,69.8
2023-05-12T13:38:50.047Z,68.0
2023-05-12T13:40:49.574Z,69.6
2023-05-12T13:42:50.168Z,68.3
2023-05-12T13:44:49.731Z,70.5
2023-05-12T13:46:49.473Z,70.3
2023-05-12T13:48:50.160Z,69.8
2023-05-12T13:50:49.836Z,69.4
2023-05-12T13:52:49.383Z,69.3
2023-05-12T13:54:49.912Z,70.9
2023-05-12T13:56:49.514Z,68.2
2023-05-12T13:58:50.066Z,68.9
2023-05-12T14:00:49.762Z,71.5
2023-05-12T14:02:50.402Z,70.4
2023-05-12T14:04:50.180Z,69.8
2023-05-12T14:06:49.913Z,71.1
2023-05-12T14:08:49.714Z,71.6
2023-05-12T14:10:49.404Z,71.6
2023-05-12T14:12:49.976Z,71.7
2023-05-12T14:14:49.592Z,67
2023-05-12T14:16:50.438Z,70.8
2023-05-12T14:18:50.202Z,70.8
2023-05-12T14:20:49.872Z,72.3
2023-05-12T14:22:49.410Z,72.0
2023-05-12T14:24:50.004Z,72.6
2023-05-12T14:26:49.660Z,71.4
2023-05-12T14:28:50.407Z,71.1
2023-05-12T14:30:50.114Z,72.0
2023-05-12T14:32:49.715Z,72.0
2023-05-12T14:34:49.388Z,73.7
2023-05-12T14:36:50.061Z,74.1
2023-05-12T14:38:49.696Z,73.4
2023-05-12T14:40:49.379Z,73.4
2023-05-12T14:42:49.974Z,72.8
2023-05-12T14:44:49.526Z,72.8
2023-05-12T14:46:50.121Z,71.0
2023-05-12T14:48:49.708Z,71.0
2023-05-12T14:50:50.311Z,70.3
2023-05-12T14:52:50.041Z,70.0
2023-05-12T14:54:49.682Z,68.8
2023-05-12T14:56:50.239Z,68.8
2023-05-12T14:58:49.843Z,67.7
2023-05-12T15:00:49.515Z,68.7
2023-05-12T15:02:50.244Z,69.0
2023-05-12T15:04:50.004Z,69.0
2023-05-12T15:06:49.558Z,67.6
2023-05-12T15:08:50.177Z,66
2023-05-12T15:10:49.843Z,66
2023-05-12T15:12:49.454Z,69.3
2023-05-12T15:14:50.096Z,68.2
2023-05-12T15:16:49.701Z,66
2023-05-12T15:18:49.437Z,68.8
2023-05-12T15:20:50.112Z,68.1
2023-05-12T15:22:49.778Z,68.4
2023-05-12T15:24:49.437Z,67.3
2023-05-12T15:26:50.079Z,66.6
2023-05-12T15:28:49.674Z,66
2023-05-12T15:30:50.220Z,65
2023-05-12T15:32:49.966Z,66
2023-05-12T15:34:49.688Z,68.3
2023-05-12T15:36:50.284Z,66
2023-05-12T15:38:49.971Z,66
2023-05-12T15:40:49.639Z,65
2023-05-12T15:42:50.300Z,66
2023-05-12T15:44:49.924Z,66
2023-05-12T15:46:49.619Z,66
2023-05-12T15:48:50.263Z,66
2023-05-12T15:50:49.858Z,64
2023-05-12T15:52:49.463Z,65
2023-05-12T15:54:50.097Z,65
2023-05-12T15:56:49.728Z,63
2023-05-12T15:58:49.338Z,63
2023-05-12T16:00:50.054Z,63
2023-05-12T16:02:49.952Z,63
2023-05-12T16:04:49.939Z,63
2023-05-12T16:06:49.631Z,63
2023-05-12T16:08:50.215Z,63
2023-05-12T16:10:49.872Z,63
2023-05-12T16:12:49.481Z,63
2023-05-12T16:14:50.100Z,63
2023-05-12T16:16:50.250Z,63
2023-05-12T16:18:49.914Z,63
2023-05-12T16:20:49.584Z,62
2023-05-12T16:22:50.189Z,62
2023-05-12T16:24:49.801Z,63
2023-05-12T16:26:49.414Z,63
2023-05-12T16:28:49.971Z,63
2023-05-12T16:30:49.535Z,63
2023-05-12T16:32:50.282Z,63
2023-05-12T16:34:49.905Z,63
2023-05-12T16:36:49.482Z,63
2023-05-12T16:38:50.093Z,62
2023-05-12T16:40:49.690Z,62
2023-05-12T16:42:50.256Z,62
2023-05-12T16:44:49.892Z,62
2023-05-12T16:46:49.746Z,63
2023-05-12T16:48:49.507Z,63
2023-05-12T16:50:50.114Z,63
2023-05-12T16:52:49.744Z,63
2023-05-12T16:54:50.325Z,63
2023-05-12T16:56:50.220Z,63
2023-05-12T16:58:49.928Z,63
2023-05-12T17:00:49.550Z,62
2023-05-12T17:02:50.259Z,62
2023-05-12T17:04:50.043Z,63
2023-05-12T17:06:49.685Z,62
2023-05-12T17:08:50.299Z,63
2023-05-12T17:10:50.055Z,62
2023-05-12T17:12:49.723Z,62
2023-05-12T17:14:56.094Z,62
2023-05-12T17:16:49.949Z,62
2023-05-12T17:20:50.133Z,61.8
2023-05-12T17:22:49.732Z,62.7
2023-05-12T17:24:49.386Z,62.7
2023-05-12T17:26:50.022Z,61.9
2023-05-12T17:28:49.577Z,62.4
2023-05-12T17:30:50.189Z,61.9
2023-05-12T17:32:49.822Z,61.4
2023-05-12T17:34:49.609Z,62.8
2023-05-12T17:36:50.177Z,62.9
2023-05-12T17:38:49.766Z,63.8
2023-05-12T17:40:49.398Z,63.8
2023-05-12T17:42:50.045Z,63.7
2023-05-12T17:44:49.708Z,64.5
2023-05-12T17:46:50.368Z,63.9
2023-05-12T17:48:50.111Z,64.3
2023-05-12T17:50:49.677Z,65.8
2023-05-12T17:52:50.251Z,64.7
2023-05-12T17:54:49.866Z,65.7
2023-05-12T17:56:49.536Z,65.7
2023-05-12T17:58:50.207Z,65.6
2023-05-12T18:00:49.865Z,64.6
2023-05-12T18:02:49.673Z,64.6
2023-05-12T18:04:49.481Z,65.4
2023-05-12T18:06:50.214Z,64.7
2023-05-12T18:08:49.835Z,66.1
2023-05-12T18:10:49.424Z,65.4
2023-05-12T18:12:50.050Z,66.7
2023-05-12T18:14:49.693Z,66.0
2023-05-12T18:16:49.418Z,66.6
2023-05-12T18:18:50.045Z,65.9
2023-05-12T18:20:49.671Z,65.6
2023-05-12T18:22:50.289Z,66.1
2023-05-12T18:24:49.874Z,65.0
2023-05-12T18:26:49.470Z,65.6
2023-05-12T18:28:50.028Z,66.1
2023-05-12T18:30:49.817Z,66.9
2023-05-12T18:32:49.575Z,66.4
2023-05-12T18:34:50.204Z,66.7
2023-05-12T18:36:49.832Z,66.7
2023-05-12T18:38:49.404Z,67.6
2023-05-12T18:40:50.086Z,67.7
2023-05-12T18:42:49.694Z,67.5
2023-05-12T18:44:50.276Z,68.9
2023-05-12T18:46:49.955Z,68.2
2023-05-12T18:48:49.647Z,69.9
2023-05-12T18:50:50.201Z,68.9
2023-05-12T18:52:49.717Z,68.2
2023-05-12T18:54:50.335Z,68.2
2023-05-12T18:56:49.896Z,67.3
2023-05-12T18:58:49.526Z,67.3
2023-05-12T19:00:50.080Z,68.1
2023-05-12T19:02:49.706Z,68.3
2023-05-12T19:04:49.489Z,67.3
2023-05-12T19:06:50.154Z,66.9
2023-05-12T19:08:49.803Z,68.0
2023-05-12T19:10:49.551Z,66.9
2023-05-12T19:12:50.260Z,67.4
2023-05-12T19:14:49.923Z,67.4
2023-05-12T19:16:49.622Z,67.5
2023-05-12T19:18:50.292Z,67.5
2023-05-12T19:20:50.030Z,67.9
2023-05-12T19:22:49.666Z,68.2
2023-05-12T19:24:50.291Z,68.1
2023-05-12T19:26:49.881Z,68.1
2023-05-12T19:28:49.618Z,68.3
2023-05-12T19:30:50.215Z,69.1
2023-05-12T19:32:49.934Z,69.7
2023-05-12T19:34:49.739Z,70.1
2023-05-12T19:36:49.383Z,69.9
2023-05-12T19:38:49.980Z,71.4
2023-05-12T19:40:49.623Z,71.4
2023-05-12T19:42:50.265Z,71.2
2023-05-12T19:44:49.881Z,70.7
2023-05-12T19:46:49.485Z,71.6
2023-05-12T19:48:50.115Z,71.7
2023-05-12T19:50:49.738Z,71.5
2023-05-12T19:52:50.330Z,71.3
2023-05-12T19:54:50.001Z,71.3
2023-05-12T19:56:49.655Z,71.9
2023-05-12T19:58:50.297Z,72.9
2023-05-12T20:00:50.044Z,72.5
2023-05-12T20:02:49.742Z,72.5
2023-05-12T20:04:49.471Z,75.0
2023-05-12T20:06:50.177Z,74.5
2023-05-12T20:08:49.820Z,75.5
2023-05-12T20:10:49.533Z,75.3
2023-05-12T20:12:50.273Z,76.4
2023-05-12T20:14:49.983Z,76.4
2023-05-12T20:16:49.640Z,76.6
2023-05-12T20:18:50.270Z,76.5
2023-05-12T20:20:49.921Z,76.8
2023-05-12T20:22:49.645Z,76.8
2023-05-12T20:24:50.323Z,76.8
2023-05-12T20:26:49.954Z,76.7
2023-05-12T20:28:49.641Z,77.1
2023-05-12T20:30:50.297Z,77.7
2023-05-12T20:32:49.936Z,78.6
2023-05-12T20:34:49.642Z,78.0
2023-05-12T20:36:50.332Z,78.2
2023-05-12T20:38:50.036Z,78.2
2023-05-12T20:40:49.607Z,77.2
2023-05-12T20:42:50.207Z,77.3
2023-05-12T20:44:49.793Z,77.9
2023-05-12T20:46:49.611Z,77.1
2023-05-12T20:48:50.256Z,77.8
2023-05-12T20:50:49.807Z,77.5
2023-05-12T20:52:49.376Z,78.3
2023-05-12T20:54:49.975Z,78.8
2023-05-12T20:56:49.591Z,78.4
2023-05-12T20:58:50.180Z,80.2
2023-05-12T21:00:49.768Z,80.2
2023-05-12T21:02:49.409Z,80.0
2023-05-12T21:04:50.115Z,79.1
2023-05-12T21:06:51.491Z,78.9
2023-05-12T21:08:49.764Z,78.9
2023-05-12T21:10:50.390Z,79.1
2023-05-12T21:12:49.978Z,79.2
2023-05-12T21:14:49.558Z,78.8
2023-05-12T21:16:50.257Z,79.8
2023-05-12T21:18:50.001Z,79.0
2023-05-12T21:20:49.677Z,80.3
2023-05-12T21:22:50.288Z,80.2
2023-05-12T21:24:51.645Z,80.1
2023-05-12T21:26:49.385Z,80.8
2023-05-12T21:28:49.974Z,81.0
2023-05-12T21:30:49.706Z,80.4
2023-05-12T21:32:50.306Z,80.9
2023-05-12T21:34:50.129Z,81.5
2023-05-12T21:36:49.757Z,83.1
2023-05-12T21:38:49.368Z,83.5
2023-05-12T21:40:49.981Z,83.5
2023-05-12T21:42:49.572Z,84.4
2023-05-12T21:44:50.196Z,83.8
2023-05-12T21:46:49.935Z,84.0
2023-05-12T21:48:49.602Z,84.3
2023-05-12T21:50:50.207Z,84.5
2023-05-12T21:52:49.819Z,85.1
2023-05-12T21:54:49.453Z,84.1
2023-05-12T21:56:50.058Z,83.8
2023-05-12T21:58:49.681Z,84.7
2023-05-12T22:00:50.280Z,84.5
2023-05-12T22:02:49.950Z,84.2
2023-05-12T22:04:49.584Z,83.9
2023-05-12T22:06:50.235Z,84.8
2023-05-12T22:08:49.765Z,84.6
2023-05-12T22:10:49.369Z,86.0
2023-05-12T22:12:49.990Z,85.5
2023-05-12T22:14:49.586Z,84.7
2023-05-12T22:16:50.261Z,84.0
2023-05-12T22:18:49.993Z,84.3
2023-05-12T22:20:49.701Z,85.3
2023-05-12T22:22:50.321Z,85.1
2023-05-12T22:24:49.924Z,85.2
2023-05-12T22:26:49.487Z,85.7
2023-05-12T22:28:50.042Z,86.0
2023-05-12T22:30:49.660Z,85.9
2023-05-12T22:32:50.270Z,86.2
2023-05-12T22:34:49.911Z,86.2
2023-05-12T22:36:49.552Z,85.7
2023-05-12T22:38:50.127Z,85.7
2023-05-12T22:40:49.725Z,85.2
2023-05-12T22:42:49.362Z,85.0
2023-05-12T22:44:49.953Z,86.1
2023-05-12T22:46:49.657Z,85.2
2023-05-12T22:48:50.283Z,85.6
2023-05-12T22:50:49.881Z,85.3
2023-05-12T22:52:49.459Z,85.4
2023-05-12T22:54:50.029Z,85.9
2023-05-12T22:56:49.603Z,74
2023-05-12T22:58:50.151Z,85.7
2023-05-12T23:00:49.802Z,86.2
2023-05-12T23:02:49.461Z,86.5
2023-05-12T23:04:50.120Z,74
2023-05-12T23:06:49.775Z,74
2023-05-12T23:08:49.378Z,86.3
2023-05-12T23:10:49.983Z,85.6
2023-05-12T23:12:49.537Z,86.3
2023-05-12T23:14:50.132Z,85.6
2023-05-12T23:16:49.776Z,85.6
2023-05-12T23:18:49.430Z,86.2
2023-05-12T23:20:50.046Z,86.4
2023-05-12T23:22:49.631Z,86.5
2023-05-12T23:24:50.253Z,86.6
2023-05-12T23:26:49.781Z,86.0
2023-05-12T23:28:49.393Z,86.9
2023-05-12T23:30:49.953Z,86.4
2023-05-12T23:32:49.689Z,76
2023-05-12T23:34:49.388Z,76
2023-05-12T23:36:49.982Z,76
2023-05-12T23:38:49.512Z,76
2023-05-12T23:40:50.048Z,76
2023-05-12T23:42:49.616Z,76
2023-05-12T23:44:50.142Z,76
2023-05-12T23:46:49.769Z,76
2023-05-12T23:48:49.422Z,77
2023-05-12T23:50:50.005Z,76
2023-05-12T23:52:49.544Z,76
2023-05-12T23:54:50.174Z,76
2023-05-12T23:56:49.756Z,76
2023-05-12T23:58:50.366Z,76
